Time;durP1;ratioP1;P1;durP2;ratioP2;P2;SDS_P1;SDS_P2;PMS_P1;PMS_P2;Temp;Humidity;BMP_temperature;BMP_pressure;BME280_temperature;BME280_humidity;BME280_pressure;Samples;Min_cycle;Max_cycle;Signal;HPM_P1;HPM_P2
2022/03/31 00:00:36;;;;;;;32.42;14.98;;;;;;;1.32;100.00;97138.53;4198096;28;20552;-71
2022/03/31 00:02:36;;;;;;;25.98;12.77;;;;;;;1.34;100.00;97143.66;4193686;28;20040;-71
2022/03/31 00:04:39;;;;;;;25.40;14.32;;;;;;;1.35;100.00;97140.59;4196808;28;20051;-71
2022/03/31 00:06:40;;;;;;;30.60;14.20;;;;;;;1.38;100.00;97141.81;4195498;28;20109;-71
2022/03/31 00:08:40;;;;;;;26.05;13.45;;;;;;;1.40;100.00;97143.03;4192827;28;20132;-71
2022/03/31 00:10:43;;;;;;;31.77;14.57;;;;;;;1.42;100.00;97141.94;4194298;28;20037;-71
2022/03/31 00:12:43;;;;;;;29.15;14.10;;;;;;;1.40;100.00;97140.31;4196452;28;20048;-71
2022/03/31 00:14:44;;;;;;;25.60;13.30;;;;;;;1.40;100.00;97139.53;4197899;28;20127;-71
2022/03/31 00:16:44;;;;;;;25.92;13.00;;;;;;;1.43;100.00;97138.06;4192570;28;20049;-71
2022/03/31 00:18:44;;;;;;;29.73;14.57;;;;;;;1.45;100.00;97141.22;4201975;28;20051;-71
2022/03/31 00:20:45;;;;;;;27.35;14.05;;;;;;;1.47;100.00;97128.03;4195132;28;20721;-71
2022/03/31 00:22:45;;;;;;;27.27;15.25;;;;;;;1.46;100.00;97134.63;4195629;28;20040;-71
2022/03/31 00:24:45;;;;;;;26.60;14.27;;;;;;;1.48;100.00;97126.88;4197911;28;20049;-71
2022/03/31 00:26:45;;;;;;;29.88;15.52;;;;;;;1.47;100.00;97136.19;4198843;28;20067;-71
2022/03/31 00:28:46;;;;;;;25.05;14.57;;;;;;;1.49;100.00;97125.72;4198332;28;20275;-71
2022/03/31 00:30:46;;;;;;;26.08;14.90;;;;;;;1.48;100.00;97130.38;4196968;28;20442;-71
2022/03/31 00:32:47;;;;;;;25.58;14.27;;;;;;;1.50;100.00;97130.84;4196644;28;20602;-71
2022/03/31 00:34:47;;;;;;;24.65;13.50;;;;;;;1.53;100.00;97126.63;4195247;28;20098;-71
2022/03/31 00:36:47;;;;;;;25.13;14.23;;;;;;;1.53;100.00;97130.13;4194069;28;20053;-71
2022/03/31 00:41:07;;;;;;;27.80;13.57;;;;;;;1.55;100.00;97127.06;4196234;28;20047;-71
2022/03/31 00:43:08;;;;;;;23.42;12.88;;;;;;;1.51;100.00;97116.06;4194671;28;20048;-71
2022/03/31 00:45:13;;;;;;;27.25;14.88;;;;;;;1.55;100.00;97122.41;4195668;28;20052;-71
2022/03/31 00:47:15;;;;;;;28.20;14.00;;;;;;;1.60;100.00;97124.06;4192893;28;20483;-71
2022/03/31 00:49:22;;;;;;;24.20;14.02;;;;;;;1.57;100.00;97119.31;4188846;28;20493;-71
2022/03/31 00:51:23;;;;;;;26.15;13.55;;;;;;;1.61;100.00;97120.19;4196452;28;20334;-71
2022/03/31 00:53:23;;;;;;;28.20;14.88;;;;;;;1.61;100.00;97120.19;4191994;28;20492;-71
2022/03/31 00:55:24;;;;;;;27.33;14.57;;;;;;;1.58;100.00;97116.25;4194242;28;20485;-71
2022/03/31 00:57:24;;;;;;;26.05;14.30;;;;;;;1.58;100.00;97118.97;4193730;28;20135;-71
2022/03/31 00:59:25;;;;;;;28.13;13.68;;;;;;;1.58;100.00;97110.81;4197488;28;20048;-71
2022/03/31 01:01:26;;;;;;;27.48;14.45;;;;;;;1.60;100.00;97116.69;4192599;28;20044;-71
2022/03/31 01:03:26;;;;;;;27.75;14.65;;;;;;;1.59;100.00;97120.56;4195889;28;20048;-71
2022/03/31 01:05:26;;;;;;;30.23;14.93;;;;;;;1.58;100.00;97108.06;4190753;28;20036;-71
2022/03/31 01:07:27;;;;;;;27.70;14.13;;;;;;;1.60;100.00;97113.97;4193436;28;20052;-71
2022/03/31 01:09:28;;;;;;;31.88;15.38;;;;;;;1.67;100.00;97111.41;4188471;28;20117;-71
2022/03/31 01:11:32;;;;;;;31.45;15.40;;;;;;;1.64;100.00;97117.56;4194987;28;20051;-71
2022/03/31 01:13:33;;;;;;;26.75;14.50;;;;;;;1.63;100.00;97105.06;4190623;28;20068;-71
2022/03/31 01:15:33;;;;;;;30.42;15.35;;;;;;;1.63;100.00;97110.53;4192730;28;20048;-71
2022/03/31 01:17:35;;;;;;;26.98;15.30;;;;;;;1.61;100.00;97091.00;4198420;28;20482;-71
2022/03/31 01:19:36;;;;;;;29.48;15.20;;;;;;;1.60;100.00;97092.16;4189936;28;20087;-71
2022/03/31 01:21:42;;;;;;;34.22;16.65;;;;;;;1.61;100.00;97101.91;4195697;28;20384;-71
2022/03/31 01:23:44;;;;;;;29.33;15.60;;;;;;;1.59;100.00;97090.56;4193905;28;20066;-71
2022/03/31 01:25:44;;;;;;;26.85;14.15;;;;;;;1.59;100.00;97085.13;4195430;28;20052;-71
2022/03/31 01:27:46;;;;;;;33.00;16.65;;;;;;;1.60;100.00;97089.44;4194637;28;20047;-71
2022/03/31 01:29:46;;;;;;;28.92;16.02;;;;;;;1.61;100.00;97082.81;4191472;28;20127;-71
2022/03/31 01:31:46;;;;;;;30.85;16.55;;;;;;;1.63;100.00;97085.97;4194930;28;20141;-71
2022/03/31 01:33:47;;;;;;;28.63;16.05;;;;;;;1.63;100.00;97082.47;4195562;28;20037;-71
2022/03/31 01:35:47;;;;;;;28.33;14.98;;;;;;;1.62;100.00;97084.41;4191334;28;20596;-71
2022/03/31 01:37:47;;;;;;;32.15;16.20;;;;;;;1.63;100.00;97079.75;4196151;28;20040;-71
2022/03/31 01:39:48;;;;;;;29.38;15.98;;;;;;;1.63;100.00;97074.28;4195073;28;20127;-71
2022/03/31 01:41:48;;;;;;;32.90;16.23;;;;;;;1.66;100.00;97079.06;4194248;28;20045;-71
2022/03/31 01:43:49;;;;;;;31.38;16.30;;;;;;;1.64;100.00;97070.41;4194256;28;20365;-71
2022/03/31 01:45:49;;;;;;;31.00;16.23;;;;;;;1.66;100.00;97074.38;4196329;28;20048;-71
2022/03/31 01:47:50;;;;;;;33.47;17.08;;;;;;;1.67;100.00;97069.72;4195127;28;20318;-71
2022/03/31 01:49:51;;;;;;;32.08;15.85;;;;;;;1.68;100.00;97066.63;4191676;28;20044;-71
2022/03/31 01:51:51;;;;;;;32.72;17.45;;;;;;;1.68;100.00;97074.81;4195839;28;20503;-71
2022/03/31 01:53:51;;;;;;;31.65;16.52;;;;;;;1.72;100.00;97077.63;4193715;28;20540;-71
2022/03/31 01:55:52;;;;;;;40.15;18.23;;;;;;;1.72;100.00;97065.91;4195745;28;20482;-71
2022/03/31 01:57:52;;;;;;;35.70;17.02;;;;;;;1.69;100.00;97062.75;4198888;28;20044;-71
2022/03/31 01:59:52;;;;;;;35.42;17.58;;;;;;;1.70;100.00;97060.81;4199028;28;20044;-71
2022/03/31 02:01:53;;;;;;;38.22;18.08;;;;;;;1.70;100.00;97060.81;4199397;28;20129;-71
2022/03/31 02:03:53;;;;;;;36.20;18.13;;;;;;;1.69;100.00;97065.50;4200995;28;20036;-71
2022/03/31 02:05:53;;;;;;;39.35;18.48;;;;;;;1.70;100.00;97066.28;4198339;28;20438;-71
2022/03/31 02:07:57;;;;;;;38.38;17.98;;;;;;;1.69;100.00;97070.94;4198498;28;20771;-71
2022/03/31 02:09:57;;;;;;;31.20;17.40;;;;;;;1.69;100.00;97061.97;4202126;28;20051;-71
2022/03/31 02:11:58;;;;;;;38.95;19.00;;;;;;;1.65;100.00;97061.88;4202401;28;20040;-71
2022/03/31 02:13:58;;;;;;;37.42;19.02;;;;;;;1.65;100.00;97059.16;4199041;28;20339;-71
2022/03/31 02:15:58;;;;;;;37.75;17.73;;;;;;;1.62;100.00;97059.06;4197780;28;20071;-71
2022/03/31 02:17:59;;;;;;;37.08;18.77;;;;;;;1.64;100.00;97057.56;4196191;28;20107;-71
2022/03/31 02:19:59;;;;;;;40.80;18.40;;;;;;;1.63;100.00;97053.25;4198800;28;20041;-71
2022/03/31 02:21:59;;;;;;;32.33;18.20;;;;;;;1.64;100.00;97056.78;4197079;28;20050;-71
2022/03/31 02:24:01;;;;;;;38.30;18.17;;;;;;;1.63;100.00;97049.75;4201649;28;20423;-71
2022/03/31 02:26:01;;;;;;;39.13;18.53;;;;;;;1.64;100.00;97054.06;4203618;28;20459;-72
2022/03/31 02:28:02;;;;;;;33.50;18.40;;;;;;;1.66;100.00;97057.25;4199834;28;20254;-71
2022/03/31 02:30:07;;;;;;;38.25;18.25;;;;;;;1.63;100.00;97049.75;4201022;28;20016;-71
2022/03/31 02:32:08;;;;;;;36.38;19.17;;;;;;;1.64;100.00;97052.13;4202006;28;20042;-71
2022/03/31 02:34:09;;;;;;;38.05;18.15;;;;;;;1.64;100.00;97043.94;4198281;28;20040;-71
2022/03/31 02:36:09;;;;;;;36.47;17.52;;;;;;;1.65;100.00;97053.69;4198702;28;20729;-71
2022/03/31 02:38:09;;;;;;;39.85;19.08;;;;;;;1.67;100.00;97047.91;4201319;28;20068;-71
2022/03/31 02:40:10;;;;;;;39.35;19.80;;;;;;;1.66;100.00;97043.59;4196675;28;20060;-71
2022/03/31 02:42:11;;;;;;;34.72;18.40;;;;;;;1.69;100.00;97053.78;4200697;28;20029;-71
2022/03/31 02:44:12;;;;;;;36.28;17.30;;;;;;;1.67;100.00;97042.47;4201049;28;20146;-71
2022/03/31 02:46:12;;;;;;;38.38;17.48;;;;;;;1.67;100.00;97047.91;4195758;28;20111;-71
2022/03/31 02:48:12;;;;;;;41.13;18.75;;;;;;;1.69;100.00;97049.13;4200779;28;20030;-71
2022/03/31 02:50:16;;;;;;;35.22;17.85;;;;;;;1.67;100.00;97037.00;4195872;28;20060;-71
2022/03/31 02:52:17;;;;;;;37.58;18.00;;;;;;;1.67;100.00;97037.78;4200885;28;20028;-71
2022/03/31 02:56:37;;;;;;;37.15;18.80;;;;;;;1.67;100.00;97042.47;4200147;28;20534;-71
2022/03/31 02:58:37;;;;;;;40.63;17.42;;;;;;;1.68;100.00;97033.91;4199700;28;20043;-71
2022/03/31 03:00:38;;;;;;;33.05;17.20;;;;;;;1.72;100.00;97033.19;4201949;28;20492;-71
2022/03/31 03:02:38;;;;;;;34.45;17.65;;;;;;;1.71;100.00;97035.13;4200188;28;20056;-71
2022/03/31 03:04:39;;;;;;;34.03;16.83;;;;;;;1.73;100.00;97032.03;4197328;28;20044;-71
2022/03/31 03:06:39;;;;;;;34.55;17.55;;;;;;;1.72;100.00;97027.75;4198693;28;20048;-71
2022/03/31 03:08:40;;;;;;;32.33;14.85;;;;;;;1.71;100.00;97032.41;4197123;28;20052;-71
2022/03/31 03:10:41;;;;;;;31.17;16.45;;;;;;;1.69;100.00;97024.59;4197578;28;20040;-71
2022/03/31 03:12:42;;;;;;;36.00;17.65;;;;;;;1.68;100.00;97017.56;4196907;28;20052;-71
2022/03/31 03:14:43;;;;;;;33.17;17.48;;;;;;;1.66;100.00;97022.59;4195144;28;20093;-71
2022/03/31 03:16:44;;;;;;;39.63;18.15;;;;;;;1.67;100.00;97015.19;4192775;28;20400;-71
2022/03/31 03:18:45;;;;;;;34.05;17.50;;;;;;;1.67;100.00;97021.44;4197184;28;20096;-71
2022/03/31 03:20:45;;;;;;;35.05;17.50;;;;;;;1.66;100.00;97017.13;4198160;28;20041;-71
2022/03/31 03:22:48;;;;;;;30.30;17.05;;;;;;;1.66;100.00;97022.59;4193325;28;20070;-71
2022/03/31 03:24:48;;;;;;;38.47;17.10;;;;;;;1.69;100.00;97016.41;4198068;28;20051;-71
2022/03/31 03:26:48;;;;;;;33.13;16.27;;;;;;;1.69;100.00;97015.63;4191631;28;20472;-71
2022/03/31 03:28:48;;;;;;;31.77;16.40;;;;;;;1.69;100.00;97012.91;4193189;28;20032;-71
2022/03/31 03:30:49;;;;;;;26.83;15.70;;;;;;;1.67;100.00;97012.47;4197060;28;20036;-71
2022/03/31 03:32:49;;;;;;;31.75;16.20;;;;;;;1.71;100.00;97012.53;4197864;28;20044;-71
2022/03/31 03:34:50;;;;;;;31.73;16.40;;;;;;;1.72;100.00;97009.44;4193779;28;20052;-71
2022/03/31 03:36:50;;;;;;;33.47;16.77;;;;;;;1.72;100.00;97001.25;4197661;28;20518;-71
2022/03/31 03:38:50;;;;;;;28.42;15.02;;;;;;;1.71;100.00;97004.34;4192899;28;20062;-71
2022/03/31 03:40:51;;;;;;;34.67;16.55;;;;;;;1.68;100.00;97008.59;4195855;28;20036;-71
2022/03/31 03:42:53;;;;;;;29.35;15.00;;;;;;;1.68;100.00;97006.66;4191561;28;20059;-71
2022/03/31 03:44:54;;;;;;;33.25;16.45;;;;;;;1.68;100.00;96994.97;4196820;28;20479;-71
2022/03/31 03:46:54;;;;;;;28.33;14.93;;;;;;;1.73;100.00;96996.59;4194806;28;20052;-71
2022/03/31 03:48:55;;;;;;;34.50;16.52;;;;;;;1.69;100.00;96997.31;4195653;28;20074;-71
2022/03/31 03:50:55;;;;;;;31.60;15.88;;;;;;;1.67;100.00;97001.56;4195262;28;20070;-71
2022/03/31 03:52:56;;;;;;;30.38;15.77;;;;;;;1.69;100.00;97010.97;4197256;28;20045;-71
2022/03/31 03:54:57;;;;;;;31.20;16.25;;;;;;;1.69;100.00;96996.53;4197865;28;20036;-71
2022/03/31 03:56:57;;;;;;;31.73;14.50;;;;;;;1.72;100.00;97000.47;4193406;28;20434;-71
2022/03/31 03:58:58;;;;;;;31.25;16.00;;;;;;;1.70;100.00;96995.38;4195491;28;20048;-71
2022/03/31 04:00:58;;;;;;;31.55;16.02;;;;;;;1.71;100.00;96991.50;4196345;28;20090;-71
2022/03/31 04:02:58;;;;;;;28.95;14.57;;;;;;;1.72;100.00;96986.84;4195369;28;20063;-71
2022/03/31 04:04:59;;;;;;;29.92;15.82;;;;;;;1.72;100.00;96987.63;4195397;28;20064;-71
2022/03/31 04:06:59;;;;;;;30.77;15.30;;;;;;;1.75;100.00;96997.84;4194581;28;20041;-71
2022/03/31 04:09:00;;;;;;;29.55;15.63;;;;;;;1.75;100.00;96989.66;4196370;28;20055;-71
2022/03/31 04:11:00;;;;;;;28.48;15.30;;;;;;;1.78;100.00;96988.16;4193553;28;20115;-71
2022/03/31 04:13:00;;;;;;;29.08;14.55;;;;;;;1.81;100.00;96990.16;4191122;28;20048;-71
2022/03/31 04:15:02;;;;;;;27.70;14.45;;;;;;;1.83;100.00;96993.34;4196981;28;20456;-71
2022/03/31 04:17:03;;;;;;;27.20;14.33;;;;;;;1.84;100.00;97000.38;4197746;28;20625;-71
2022/03/31 04:19:08;;;;;;;26.60;14.30;;;;;;;1.82;100.00;96981.66;4194905;28;20266;-71
2022/03/31 04:21:10;;;;;;;30.45;14.70;;;;;;;1.82;100.00;96989.81;4194421;28;20436;-71
2022/03/31 04:23:10;;;;;;;24.98;14.07;;;;;;;1.82;100.00;96981.66;4196444;28;20388;-71
2022/03/31 04:25:12;;;;;;;28.20;16.02;;;;;;;1.84;100.00;96984.78;4194182;28;20061;-71
2022/03/31 04:27:12;;;;;;;32.25;15.98;;;;;;;1.88;100.00;96982.13;4191574;28;20166;-71
2022/03/31 04:29:13;;;;;;;36.05;17.42;;;;;;;1.86;100.00;96973.53;4192755;28;20478;-71
2022/03/31 04:31:13;;;;;;;30.02;15.43;;;;;;;1.87;100.00;96964.97;4198137;28;20092;-71
2022/03/31 04:33:13;;;;;;;30.30;14.90;;;;;;;1.84;100.00;96973.88;4196513;28;20039;-71
2022/03/31 04:35:15;;;;;;;32.33;15.93;;;;;;;1.84;100.00;96971.16;4196931;28;20044;-71
2022/03/31 04:37:15;;;;;;;26.67;14.20;;;;;;;1.84;100.00;96967.66;4196022;28;20076;-71
2022/03/31 04:39:15;;;;;;;26.25;14.77;;;;;;;1.84;100.00;96976.63;4193402;28;20075;-71
2022/03/31 04:41:16;;;;;;;30.52;15.10;;;;;;;1.84;100.00;96965.72;4196445;28;20551;-71
2022/03/31 04:43:16;;;;;;;27.42;15.35;;;;;;;1.85;100.00;96974.69;4194781;28;20048;-71
2022/03/31 04:45:16;;;;;;;25.65;14.63;;;;;;;1.83;100.00;96971.53;4195098;28;20434;-71
2022/03/31 04:47:17;;;;;;;28.38;14.32;;;;;;;1.86;100.00;96978.97;4187703;28;20036;-71
2022/03/31 04:49:17;;;;;;;32.10;15.82;;;;;;;1.83;100.00;96971.53;4128476;28;20052;-71
2022/03/31 04:51:17;;;;;;;26.85;15.15;;;;;;;1.86;100.00;96981.72;4194361;28;20405;-71
2022/03/31 04:53:18;;;;;;;25.42;14.48;;;;;;;1.84;100.00;96978.56;4193437;28;20068;-71
2022/03/31 04:55:18;;;;;;;24.42;14.45;;;;;;;1.86;100.00;96981.72;4195978;28;20135;-71
2022/03/31 04:57:20;;;;;;;24.88;14.13;;;;;;;1.84;100.00;96987.53;4194400;28;20053;-71
2022/03/31 04:59:20;;;;;;;28.00;15.40;;;;;;;1.86;100.00;96987.16;4198072;28;20088;-71
2022/03/31 05:01:22;;;;;;;25.50;14.52;;;;;;;1.85;100.00;96985.59;4189414;28;20036;-71
2022/03/31 05:03:22;;;;;;;31.30;16.10;;;;;;;1.85;100.00;96977.41;4194396;28;20052;-71
2022/03/31 05:05:23;;;;;;;26.38;15.00;;;;;;;1.87;100.00;96981.34;4192645;28;20302;-71
2022/03/31 05:07:24;;;;;;;23.33;12.98;;;;;;;1.89;100.00;96964.63;4192050;28;20181;-71
2022/03/31 05:09:24;;;;;;;30.60;14.98;;;;;;;1.91;100.00;96967.81;4196052;28;20097;-71
2022/03/31 05:11:24;;;;;;;23.20;13.88;;;;;;;1.88;100.00;96960.31;4197567;28;20046;-71
2022/03/31 05:13:25;;;;;;;25.90;13.15;;;;;;;1.88;100.00;96960.31;4197849;28;20382;-71
2022/03/31 05:15:25;;;;;;;22.15;13.73;;;;;;;1.85;100.00;96953.66;4193984;28;20032;-71
2022/03/31 05:17:31;;;;;;;22.13;12.68;;;;;;;1.87;100.00;96954.06;4193219;28;20059;-71
2022/03/31 05:19:32;;;;;;;26.58;13.43;;;;;;;1.85;100.00;96945.47;4195017;28;20068;-71
2022/03/31 05:21:33;;;;;;;21.38;13.13;;;;;;;1.88;100.00;96943.94;4191833;28;20077;-71
2022/03/31 05:23:33;;;;;;;23.95;14.23;;;;;;;1.87;100.00;96947.84;4195340;28;20055;-71
2022/03/31 05:25:34;;;;;;;25.13;14.13;;;;;;;1.88;100.00;96946.69;4194520;28;20049;-71
2022/03/31 05:27:40;;;;;;;22.38;12.57;;;;;;;1.82;100.00;96951.66;4196508;28;20044;-71
2022/03/31 05:29:40;;;;;;;25.90;13.38;;;;;;;1.81;100.00;96947.31;4192585;28;20361;-71
2022/03/31 05:31:40;;;;;;;20.35;12.38;;;;;;;1.84;100.00;96956.75;4193876;28;20032;-71
2022/03/31 05:33:41;;;;;;;22.50;12.68;;;;;;;1.85;100.00;96958.31;4197528;28;20114;-71
2022/03/31 05:35:41;;;;;;;20.45;12.30;;;;;;;1.87;100.00;96956.00;4196928;28;20039;-71
2022/03/31 05:37:42;;;;;;;21.85;12.43;;;;;;;1.87;100.00;96958.75;4195273;28;20578;-71
2022/03/31 05:39:42;;;;;;;22.08;12.75;;;;;;;1.83;100.00;96949.72;4196611;28;20076;-71
2022/03/31 05:41:43;;;;;;;25.25;14.50;;;;;;;1.84;100.00;96956.75;4196865;28;20334;-71
2022/03/31 05:43:43;;;;;;;24.95;12.77;;;;;;;1.85;100.00;96945.47;4193368;28;20072;-71
2022/03/31 05:45:43;;;;;;;22.05;12.68;;;;;;;1.85;100.00;96950.13;4194079;28;20037;-71
2022/03/31 05:47:44;;;;;;;19.75;12.70;;;;;;;1.86;100.00;96957.16;4194306;28;20318;-71
2022/03/31 05:49:45;;;;;;;20.98;12.52;;;;;;;1.85;100.00;96958.31;4192679;28;20260;-71
2022/03/31 05:51:45;;;;;;;23.00;12.95;;;;;;;1.90;100.00;96960.75;4195344;28;20776;-71
2022/03/31 05:53:46;;;;;;;21.50;12.30;;;;;;;1.85;100.00;96955.59;4190239;28;20079;-71
2022/03/31 05:55:46;;;;;;;22.88;13.18;;;;;;;1.86;100.00;96954.44;4196198;28;20094;-71
2022/03/31 05:57:47;;;;;;;21.67;13.75;;;;;;;1.86;100.00;96962.63;4194590;28;20044;-71
2022/03/31 05:59:47;;;;;;;24.77;14.93;;;;;;;1.82;100.00;96965.28;4195415;28;20040;-71
2022/03/31 06:01:48;;;;;;;28.55;16.50;;;;;;;1.87;100.00;96967.72;4194596;28;20090;-71
2022/03/31 06:03:48;;;;;;;36.80;16.88;;;;;;;1.85;100.00;96963.78;4192554;28;20041;-71
2022/03/31 06:05:52;;;;;;;31.48;16.20;;;;;;;1.88;100.00;96968.50;4194322;28;20052;-71
2022/03/31 06:07:53;;;;;;;29.08;15.52;;;;;;;1.86;100.00;96971.59;4194931;28;20403;-71
2022/03/31 06:09:53;;;;;;;26.27;13.75;;;;;;;1.90;100.00;96977.91;4194785;28;20045;-71
2022/03/31 06:11:53;;;;;;;24.15;13.55;;;;;;;1.89;100.00;96978.25;4195190;28;20551;-71
2022/03/31 06:13:54;;;;;;;25.38;12.88;;;;;;;1.90;100.00;96977.91;4197606;28;20111;-71
2022/03/31 06:15:54;;;;;;;26.33;14.70;;;;;;;1.92;100.00;96980.28;4195761;28;20044;-71
2022/03/31 06:17:56;;;;;;;30.58;14.60;;;;;;;1.89;100.00;96975.53;4191469;28;20094;-71
2022/03/31 06:19:56;;;;;;;39.10;18.42;;;;;;;1.90;100.00;96983.38;4194637;28;20037;-71
2022/03/31 06:21:56;;;;;;;43.25;19.80;;;;;;;1.88;100.00;96985.66;4194247;28;20153;-71
2022/03/31 06:23:57;;;;;;;31.52;17.17;;;;;;;1.85;100.00;96977.41;4192210;28;20037;-71
2022/03/31 06:25:57;;;;;;;33.25;15.98;;;;;;;1.90;100.00;96983.38;4195415;28;20051;-71
2022/03/31 06:27:58;;;;;;;36.55;16.95;;;;;;;1.90;100.00;96982.56;4192170;28;20036;-71
2022/03/31 06:29:58;;;;;;;36.25;17.50;;;;;;;1.91;100.00;96982.22;4194655;28;20093;-71
2022/03/31 06:31:59;;;;;;;28.73;15.68;;;;;;;1.91;100.00;96989.63;4197294;28;20055;-71
2022/03/31 06:33:59;;;;;;;34.53;16.65;;;;;;;1.90;100.00;96985.28;4194939;28;20036;-71
2022/03/31 06:36:00;;;;;;;31.13;15.98;;;;;;;1.92;100.00;96974.84;4195297;28;20036;-71
2022/03/31 06:38:01;;;;;;;25.73;14.45;;;;;;;1.90;100.00;96979.84;4196444;28;20040;-71
2022/03/31 06:40:01;;;;;;;28.40;14.95;;;;;;;1.93;100.00;96988.09;4193024;28;20040;-71
2022/03/31 06:42:02;;;;;;;25.10;14.63;;;;;;;1.94;100.00;96975.25;4191806;28;20520;-72
2022/03/31 06:44:04;;;;;;;29.42;16.00;;;;;;;1.96;100.00;96990.09;4195539;28;20527;-72
2022/03/31 06:46:06;;;;;;;26.77;15.32;;;;;;;1.92;100.00;96975.63;4193684;28;20510;-71
2022/03/31 06:48:06;;;;;;;22.98;13.27;;;;;;;1.93;100.00;96992.78;4190566;28;20021;-71
2022/03/31 06:50:08;;;;;;;24.52;14.52;;;;;;;1.91;100.00;96984.16;4197065;28;20034;-71
2022/03/31 06:52:08;;;;;;;26.20;15.57;;;;;;;1.91;100.00;96986.91;4199828;28;20028;-71
2022/03/31 06:54:09;;;;;;;25.90;15.35;;;;;;;1.88;100.00;96980.19;4196165;28;20511;-71
2022/03/31 06:56:13;;;;;;;23.55;14.65;;;;;;;1.87;100.00;96988.75;4196075;28;20027;-71
2022/03/31 06:58:14;;;;;;;25.92;14.77;;;;;;;1.86;100.00;96981.72;4196414;28;20055;-71
2022/03/31 07:00:15;;;;;;;24.90;14.73;;;;;;;1.83;100.00;96982.44;4198826;28;20333;-71
2022/03/31 07:02:16;;;;;;;26.25;14.85;;;;;;;1.81;100.00;96976.53;4198387;28;20035;-71
2022/03/31 07:04:16;;;;;;;25.90;14.80;;;;;;;1.82;100.00;96980.81;4196433;28;20032;-71
2022/03/31 07:06:17;;;;;;;27.23;14.98;;;;;;;1.82;100.00;96969.91;4196745;28;20093;-71
2022/03/31 07:08:18;;;;;;;25.65;14.93;;;;;;;1.84;100.00;96967.66;4195835;28;20384;-71
2022/03/31 07:10:18;;;;;;;33.10;16.92;;;;;;;1.84;100.00;96976.63;4199559;28;20232;-71
2022/03/31 07:12:19;;;;;;;32.58;17.83;;;;;;;1.80;100.00;96972.22;4198805;28;20282;-71
2022/03/31 07:14:19;;;;;;;30.63;16.13;;;;;;;1.78;100.00;96969.84;4194454;28;20385;-71
2022/03/31 07:16:19;;;;;;;29.77;16.25;;;;;;;1.82;100.00;96964.47;4197345;28;20063;-71
2022/03/31 07:18:20;;;;;;;33.67;17.10;;;;;;;1.78;100.00;96971.78;4195615;28;21589;-71
2022/03/31 07:20:23;;;;;;;27.55;16.27;;;;;;;1.74;100.00;96971.72;4196649;28;20157;-71
2022/03/31 07:22:23;;;;;;;32.80;17.13;;;;;;;1.73;100.00;96970.13;4189095;28;20695;-71
2022/03/31 07:24:24;;;;;;;31.90;15.63;;;;;;;1.77;100.00;96976.47;4195929;28;20044;-71
2022/03/31 07:26:24;;;;;;;27.90;16.88;;;;;;;1.75;100.00;96972.50;4193971;28;20079;-71
2022/03/31 07:28:25;;;;;;;30.67;16.65;;;;;;;1.74;100.00;96976.38;4198647;28;20042;-71
2022/03/31 07:30:26;;;;;;;33.30;16.00;;;;;;;1.72;100.00;96974.00;4198032;28;20674;-71
2022/03/31 07:32:26;;;;;;;29.50;16.27;;;;;;;1.69;100.00;96969.28;4192428;28;20576;-71
2022/03/31 07:34:26;;;;;;;29.75;16.33;;;;;;;1.68;100.00;96976.66;4199573;28;20383;-71
2022/03/31 07:36:27;;;;;;;29.52;15.60;;;;;;;1.65;100.00;96982.03;4196338;28;20464;-71
2022/03/31 07:38:27;;;;;;;26.38;14.45;;;;;;;1.69;100.00;96975.50;4194905;28;20037;-71
2022/03/31 07:40:27;;;;;;;29.63;15.80;;;;;;;1.67;100.00;96977.03;4196767;28;20490;-71
2022/03/31 07:42:27;;;;;;;29.40;15.63;;;;;;;1.70;100.00;96970.84;4190231;28;20123;-71
2022/03/31 07:44:29;;;;;;;30.92;16.92;;;;;;;1.71;100.00;96968.91;4196373;28;20055;-71
2022/03/31 07:46:32;;;;;;;28.85;15.73;;;;;;;1.71;100.00;96961.53;4196266;28;20080;-71
2022/03/31 07:48:33;;;;;;;29.73;15.73;;;;;;;1.78;100.00;96963.63;4197630;28;20044;-71
2022/03/31 07:50:34;;;;;;;28.73;16.20;;;;;;;1.74;100.00;96962.72;4196966;28;20087;-71
2022/03/31 07:52:35;;;;;;;31.10;15.77;;;;;;;1.73;100.00;96963.88;4196791;28;20490;-71
2022/03/31 07:54:36;;;;;;;30.35;17.38;;;;;;;1.66;100.00;96965.34;4196835;28;20036;-71
2022/03/31 07:56:36;;;;;;;23.77;14.30;;;;;;;1.69;100.00;96966.53;4199115;28;20577;-71
2022/03/31 07:58:37;;;;;;;26.98;14.48;;;;;;;1.68;100.00;96963.03;4195977;28;20036;-71
2022/03/31 08:00:37;;;;;;;27.65;15.68;;;;;;;1.66;100.00;96970.78;4193632;28;20492;-71
2022/03/31 08:02:40;;;;;;;25.02;14.48;;;;;;;1.67;100.00;96969.63;4195527;28;20033;-71
2022/03/31 08:04:40;;;;;;;;;;;;;;;1.69;100.00;96972.00;4195956;28;20048;-71
2022/03/31 08:06:41;;;;;;;26.95;14.50;;;;;;;1.67;100.00;96969.63;4194674;28;19920;-71
2022/03/31 08:08:42;;;;;;;25.45;14.70;;;;;;;1.71;100.00;96966.97;4196741;28;20049;-71
2022/03/31 08:10:42;;;;;;;25.83;14.10;;;;;;;1.70;100.00;96957.22;4195874;28;20041;-71
2022/03/31 08:12:44;;;;;;;25.35;14.52;;;;;;;1.72;100.00;96960.38;4195485;28;20148;-71
2022/03/31 08:14:44;;;;;;;26.67;13.82;;;;;;;1.79;100.00;96976.88;4192539;28;20043;-71
2022/03/31 08:16:46;;;;;;;23.45;13.98;;;;;;;1.80;100.00;96974.94;4196361;28;20036;-71
2022/03/31 08:18:47;;;;;;;25.92;14.27;;;;;;;1.75;100.00;96965.13;4195400;28;20356;-71
2022/03/31 08:20:47;;;;;;;23.88;13.52;;;;;;;1.79;100.00;96970.63;4193550;28;20050;-71
2022/03/31 08:22:48;;;;;;;23.83;13.50;;;;;;;1.82;100.00;96969.91;4194180;28;20075;-71
2022/03/31 08:24:48;;;;;;;23.27;13.50;;;;;;;1.80;100.00;96969.50;4191801;28;20036;-71
2022/03/31 08:26:50;;;;;;;29.95;14.98;;;;;;;1.79;100.00;96965.97;4193250;28;20088;-71
2022/03/31 08:28:50;;;;;;;26.63;14.07;;;;;;;1.83;100.00;96958.69;4192614;28;20048;-71
2022/03/31 08:30:52;;;;;;;22.35;12.63;;;;;;;1.86;100.00;96970.81;4196976;28;20218;-71
2022/03/31 08:32:52;;;;;;;20.40;12.18;;;;;;;1.87;100.00;96956.78;4196423;28;20033;-71
2022/03/31 08:34:52;;;;;;;21.75;12.55;;;;;;;1.88;100.00;96961.09;4194695;28;20249;-71
2022/03/31 08:36:53;;;;;;;33.47;14.30;;;;;;;1.92;100.00;96964.72;4194596;28;20113;-71
2022/03/31 08:38:53;;;;;;;33.60;18.40;;;;;;;1.93;100.00;96960.03;4195371;28;20131;-71
2022/03/31 08:40:56;;;;;;;38.35;20.38;;;;;;;1.92;100.00;96963.91;4196668;28;20382;-71
2022/03/31 08:42:56;;;;;;;47.00;22.27;;;;;;;1.92;100.00;96970.16;4194510;28;20564;-71
2022/03/31 08:44:59;;;;;;;30.38;16.70;;;;;;;1.90;100.00;96967.00;4200443;28;20285;-71
2022/03/31 08:46:59;;;;;;;28.48;15.93;;;;;;;1.92;100.00;96972.09;4195362;28;20542;-71
2022/03/31 08:49:00;;;;;;;30.48;17.23;;;;;;;1.95;100.00;96969.44;4196654;28;20075;-71
2022/03/31 08:51:00;;;;;;;25.23;15.75;;;;;;;1.92;100.00;96966.66;4196225;28;20375;-71
2022/03/31 08:53:02;;;;;;;24.77;15.52;;;;;;;1.95;100.00;96968.66;4194191;28;20449;-71
2022/03/31 08:55:03;;;;;;;23.67;12.90;;;;;;;1.95;100.00;96963.97;4196011;28;20340;-71
2022/03/31 08:57:04;;;;;;;26.63;13.93;;;;;;;1.93;100.00;96962.78;4193719;28;20278;-71
2022/03/31 08:59:04;;;;;;;30.13;15.45;;;;;;;1.95;100.00;96961.25;4194545;28;20555;-71
2022/03/31 09:01:05;;;;;;;27.90;15.73;;;;;;;1.97;100.00;96964.41;4195276;28;20046;-71
2022/03/31 09:03:10;;;;;;;28.85;14.23;;;;;;;1.98;100.00;96965.97;4193988;28;20037;-71
2022/03/31 09:05:11;;;;;;;30.83;14.30;;;;;;;1.96;100.00;96954.66;4194782;28;20044;-71
2022/03/31 09:07:11;;;;;;;29.92;14.52;;;;;;;2.00;100.00;96959.41;4193290;28;20287;-71
2022/03/31 09:09:13;;;;;;;29.02;15.48;;;;;;;1.97;100.00;96958.94;4193994;28;20032;-71
2022/03/31 09:11:13;;;;;;;28.43;15.00;;;;;;;1.98;100.00;96951.56;4196132;28;20633;-70
2022/03/31 09:13:18;;;;;;;30.35;16.02;;;;;;;1.97;100.00;96958.94;4194413;28;20174;-71
2022/03/31 09:15:18;;;;;;;28.60;14.73;;;;;;;1.95;100.00;96971.38;4191538;28;20205;-71
2022/03/31 09:17:19;;;;;;;27.50;15.07;;;;;;;1.87;100.00;96964.97;4191499;28;20131;-71
2022/03/31 09:19:20;;;;;;;28.00;15.73;;;;;;;1.88;100.00;96965.78;4196162;28;20047;-71